Lexington, KY (40513)

5:56 AM EDT on July 23, 2017 (GMT -0400)
| | Change Station

Elev -9999 ft 0.00 °N, 0.00 °E | Updated

Light Rain
Light Rain
°F
Feels Like °F
N
Wind Variable Wind from North
Gusts mph

Today
High -- | Low -- °F
--% Chance of Precip.
Yesterday
High -- | Low -- °F
Precip. -- in
Pressure 29.87 in
Visibility 7.0 miles
Clouds Overcast 9000 ft
Dew Point Not available.
Humidity Not available.
Rainfall --
Snow Depth Not available.
6:34 AM 8:55 PM
Waning Crescent, 0% visible
METAR KLEX 230954Z 29007KT 7SM -RA OVC090 23/21 A2991 RMK AO2 SLP115 P0002 T02280211
Pressure 29.87 in
Visibility 7.0 miles
Clouds Overcast 9000 ft
Dew Point Not available.
Humidity Not available.
Rainfall --
Snow Depth Not available.
6:34 AM 8:55 PM
Waning Crescent, 0% visible
METAR KLEX 230954Z 29007KT 7SM -RA OVC090 23/21 A2991 RMK AO2 SLP115 P0002 T02280211

Get Severe Weather Alerts

Thanks for signing up!

Be on the lookout for a verification email in your inbox.

You'll start receiving the daily forecast at 6 AM.

×

10-Day Weather Forecast

Almanac

Astronomy

Jul. 23, 2017 Rise Set
Actual Time
Civil Twilight
Nautical Twilight
Astronomical Twilight
Moon
Length of Visible Light
Length of Day
Tomorrow will be .
, % of the Moon is Illuminated

Today's Extremes

State Highs State Lows

Community

WunderPhotos

Category 6

Welcome to Category 6. This is the collective home for Weather Underground's featured writeups by Dr. Jeff Masters (right), Bob Henson (left), Chris Burt, and other regular contributors.

Nearby

Air Quality

  Air Quality AQ Index Pollutant
Not available.

Snow Depth

Station Depth Elevation

Earthquake Activity

City Distance Mag. Time & Date
Minimum magnitude displayed is 2.5.

Coastal Water Temperatures

Place Temperature

Stations

Nearby Weather Stations

Station Location Temp. Windchill Dew Point Humidity Wind Precip. Elev Updated Type
                   

Watches & Warnings

There are currently no watches in effect.